sensor_id;sensor_type;location;lat;lon;timestamp;P1;durP1;ratioP1;P2;durP2;ratioP2
66523;SDS011;53350;52.210;5.160;2023-03-01T00:02:11;18.35;;;10.30;;
66523;SDS011;53350;52.210;5.160;2023-03-01T00:04:39;19.08;;;10.52;;
66523;SDS011;53350;52.210;5.160;2023-03-01T00:07:06;15.90;;;10.30;;
66523;SDS011;53350;52.210;5.160;2023-03-01T00:09:32;15.45;;;9.98;;
66523;SDS011;53350;52.210;5.160;2023-03-01T00:11:58;16.10;;;10.10;;
66523;SDS011;53350;52.210;5.160;2023-03-01T00:14:25;14.63;;;10.32;;
66523;SDS011;53350;52.210;5.160;2023-03-01T00:16:51;14.48;;;9.75;;
66523;SDS011;53350;52.210;5.160;2023-03-01T00:19:18;15.20;;;10.02;;
66523;SDS011;53350;52.210;5.160;2023-03-01T00:21:48;17.05;;;9.85;;
66523;SDS011;53350;52.210;5.160;2023-03-01T00:24:14;17.25;;;9.45;;
66523;SDS011;53350;52.210;5.160;2023-03-01T00:26:41;16.88;;;9.18;;
66523;SDS011;53350;52.210;5.160;2023-03-01T00:29:07;13.43;;;8.90;;
66523;SDS011;53350;52.210;5.160;2023-03-01T00:31:34;12.63;;;8.65;;
66523;SDS011;53350;52.210;5.160;2023-03-01T00:34:01;14.18;;;9.02;;
66523;SDS011;53350;52.210;5.160;2023-03-01T00:36:30;15.30;;;9.00;;
66523;SDS011;53350;52.210;5.160;2023-03-01T00:38:59;15.77;;;8.90;;
66523;SDS011;53350;52.210;5.160;2023-03-01T00:41:26;16.77;;;9.32;;
66523;SDS011;53350;52.210;5.160;2023-03-01T00:43:53;14.15;;;9.95;;
66523;SDS011;53350;52.210;5.160;2023-03-01T00:46:20;16.05;;;9.88;;
66523;SDS011;53350;52.210;5.160;2023-03-01T00:48:48;16.92;;;9.60;;
66523;SDS011;53350;52.210;5.160;2023-03-01T00:51:16;15.90;;;10.13;;
66523;SDS011;53350;52.210;5.160;2023-03-01T00:53:44;15.25;;;9.30;;
66523;SDS011;53350;52.210;5.160;2023-03-01T00:56:13;16.55;;;10.07;;
66523;SDS011;53350;52.210;5.160;2023-03-01T00:58:40;16.45;;;9.43;;
66523;SDS011;53350;52.210;5.160;2023-03-01T01:01:07;14.43;;;9.38;;
66523;SDS011;53350;52.210;5.160;2023-03-01T01:03:42;19.98;;;10.10;;
66523;SDS011;53350;52.210;5.160;2023-03-01T01:06:12;18.90;;;9.88;;
66523;SDS011;53350;52.210;5.160;2023-03-01T01:08:39;14.35;;;9.73;;
66523;SDS011;53350;52.210;5.160;2023-03-01T01:11:08;15.40;;;9.45;;
66523;SDS011;53350;52.210;5.160;2023-03-01T01:13:36;15.23;;;9.55;;
66523;SDS011;53350;52.210;5.160;2023-03-01T01:16:03;16.65;;;9.93;;
66523;SDS011;53350;52.210;5.160;2023-03-01T01:18:30;16.92;;;9.80;;
66523;SDS011;53350;52.210;5.160;2023-03-01T01:20:56;16.83;;;9.57;;
66523;SDS011;53350;52.210;5.160;2023-03-01T01:23:23;13.18;;;8.95;;
66523;SDS011;53350;52.210;5.160;2023-03-01T01:25:49;15.52;;;10.00;;
66523;SDS011;53350;52.210;5.160;2023-03-01T01:28:16;13.80;;;8.95;;
66523;SDS011;53350;52.210;5.160;2023-03-01T01:30:44;18.27;;;10.13;;
66523;SDS011;53350;52.210;5.160;2023-03-01T01:33:10;14.53;;;9.33;;
66523;SDS011;53350;52.210;5.160;2023-03-01T01:35:36;16.13;;;9.63;;
66523;SDS011;53350;52.210;5.160;2023-03-01T01:38:03;14.80;;;9.20;;
66523;SDS011;53350;52.210;5.160;2023-03-01T01:40:29;17.58;;;10.02;;
66523;SDS011;53350;52.210;5.160;2023-03-01T01:42:56;15.65;;;9.45;;
66523;SDS011;53350;52.210;5.160;2023-03-01T01:45:27;14.50;;;9.18;;
66523;SDS011;53350;52.210;5.160;2023-03-01T01:47:58;16.73;;;9.77;;
66523;SDS011;53350;52.210;5.160;2023-03-01T01:50:28;17.25;;;9.45;;
66523;SDS011;53350;52.210;5.160;2023-03-01T01:53:02;15.73;;;9.57;;
66523;SDS011;53350;52.210;5.160;2023-03-01T01:57:58;17.77;;;8.98;;
66523;SDS011;53350;52.210;5.160;2023-03-01T02:00:28;16.13;;;9.13;;
66523;SDS011;53350;52.210;5.160;2023-03-01T02:02:56;14.23;;;9.15;;
66523;SDS011;53350;52.210;5.160;2023-03-01T02:05:28;15.88;;;8.95;;
66523;SDS011;53350;52.210;5.160;2023-03-01T02:08:01;13.75;;;8.73;;
66523;SDS011;53350;52.210;5.160;2023-03-01T02:10:28;14.70;;;9.13;;
66523;SDS011;53350;52.210;5.160;2023-03-01T02:12:58;16.45;;;10.73;;
66523;SDS011;53350;52.210;5.160;2023-03-01T02:15:25;13.38;;;10.00;;
66523;SDS011;53350;52.210;5.160;2023-03-01T02:17:52;17.35;;;10.10;;
66523;SDS011;53350;52.210;5.160;2023-03-01T02:20:22;16.60;;;9.95;;
66523;SDS011;53350;52.210;5.160;2023-03-01T02:22:56;17.15;;;10.57;;
66523;SDS011;53350;52.210;5.160;2023-03-01T02:25:28;15.60;;;9.25;;
66523;SDS011;53350;52.210;5.160;2023-03-01T02:28:03;19.52;;;9.88;;
66523;SDS011;53350;52.210;5.160;2023-03-01T02:30:36;15.60;;;10.18;;
66523;SDS011;53350;52.210;5.160;2023-03-01T02:33:23;14.73;;;8.93;;
66523;SDS011;53350;52.210;5.160;2023-03-01T02:35:50;13.32;;;8.77;;
66523;SDS011;53350;52.210;5.160;2023-03-01T02:38:19;15.77;;;9.50;;
66523;SDS011;53350;52.210;5.160;2023-03-01T02:40:46;17.17;;;9.70;;
66523;SDS011;53350;52.210;5.160;2023-03-01T02:43:15;16.88;;;10.18;;
66523;SDS011;53350;52.210;5.160;2023-03-01T02:45:48;16.63;;;9.98;;
66523;SDS011;53350;52.210;5.160;2023-03-01T02:48:15;16.40;;;9.70;;
66523;SDS011;53350;52.210;5.160;2023-03-01T02:50:51;15.73;;;10.38;;
66523;SDS011;53350;52.210;5.160;2023-03-01T02:53:27;15.15;;;9.68;;
66523;SDS011;53350;52.210;5.160;2023-03-01T02:56:00;14.95;;;10.40;;
66523;SDS011;53350;52.210;5.160;2023-03-01T02:58:27;16.48;;;10.80;;
66523;SDS011;53350;52.210;5.160;2023-03-01T03:00:55;15.10;;;10.18;;
66523;SDS011;53350;52.210;5.160;2023-03-01T03:03:25;16.13;;;9.77;;
66523;SDS011;53350;52.210;5.160;2023-03-01T03:05:52;15.32;;;9.95;;
66523;SDS011;53350;52.210;5.160;2023-03-01T03:08:18;16.23;;;10.25;;
66523;SDS011;53350;52.210;5.160;2023-03-01T03:10:48;15.60;;;9.88;;
66523;SDS011;53350;52.210;5.160;2023-03-01T03:13:15;14.75;;;10.65;;
66523;SDS011;53350;52.210;5.160;2023-03-01T03:15:42;17.58;;;10.98;;
66523;SDS011;53350;52.210;5.160;2023-03-01T03:18:12;19.52;;;9.55;;
66523;SDS011;53350;52.210;5.160;2023-03-01T03:20:40;17.77;;;10.20;;
66523;SDS011;53350;52.210;5.160;2023-03-01T03:23:08;14.68;;;9.85;;
66523;SDS011;53350;52.210;5.160;2023-03-01T03:25:35;15.70;;;9.57;;
66523;SDS011;53350;52.210;5.160;2023-03-01T03:28:02;15.93;;;9.63;;
66523;SDS011;53350;52.210;5.160;2023-03-01T03:30:34;18.45;;;10.70;;
66523;SDS011;53350;52.210;5.160;2023-03-01T03:33:04;17.83;;;9.80;;
66523;SDS011;53350;52.210;5.160;2023-03-01T03:35:34;16.17;;;10.30;;
66523;SDS011;53350;52.210;5.160;2023-03-01T03:38:05;17.08;;;10.50;;
66523;SDS011;53350;52.210;5.160;2023-03-01T03:40:40;15.55;;;9.52;;
66523;SDS011;53350;52.210;5.160;2023-03-01T03:45:37;13.63;;;9.50;;
66523;SDS011;53350;52.210;5.160;2023-03-01T03:48:04;16.50;;;10.25;;
66523;SDS011;53350;52.210;5.160;2023-03-01T03:50:34;15.20;;;10.25;;
66523;SDS011;53350;52.210;5.160;2023-03-01T03:53:01;14.88;;;10.30;;
66523;SDS011;53350;52.210;5.160;2023-03-01T03:57:56;15.82;;;8.88;;
66523;SDS011;53350;52.210;5.160;2023-03-01T04:00:27;17.17;;;9.48;;
66523;SDS011;53350;52.210;5.160;2023-03-01T04:02:53;18.33;;;9.82;;
66523;SDS011;53350;52.210;5.160;2023-03-01T04:05:21;16.45;;;10.27;;
66523;SDS011;53350;52.210;5.160;2023-03-01T04:07:49;16.05;;;9.98;;
66523;SDS011;53350;52.210;5.160;2023-03-01T04:10:26;18.88;;;10.13;;
66523;SDS011;53350;52.210;5.160;2023-03-01T04:12:53;16.65;;;10.18;;
66523;SDS011;53350;52.210;5.160;2023-03-01T04:15:21;14.73;;;9.60;;
66523;SDS011;53350;52.210;5.160;2023-03-01T04:17:49;19.73;;;10.40;;
66523;SDS011;53350;52.210;5.160;2023-03-01T04:20:17;15.43;;;10.10;;
66523;SDS011;53350;52.210;5.160;2023-03-01T04:22:50;15.45;;;9.98;;
66523;SDS011;53350;52.210;5.160;2023-03-01T04:25:18;17.63;;;10.13;;
66523;SDS011;53350;52.210;5.160;2023-03-01T04:27:44;20.35;;;9.85;;
66523;SDS011;53350;52.210;5.160;2023-03-01T04:30:11;15.40;;;10.38;;
66523;SDS011;53350;52.210;5.160;2023-03-01T04:32:38;15.63;;;10.02;;
66523;SDS011;53350;52.210;5.160;2023-03-01T04:35:04;16.92;;;10.93;;
66523;SDS011;53350;52.210;5.160;2023-03-01T04:37:31;14.40;;;9.02;;
66523;SDS011;53350;52.210;5.160;2023-03-01T04:39:58;15.63;;;9.77;;
66523;SDS011;53350;52.210;5.160;2023-03-01T04:42:25;16.10;;;10.23;;
66523;SDS011;53350;52.210;5.160;2023-03-01T04:44:51;16.10;;;10.55;;
66523;SDS011;53350;52.210;5.160;2023-03-01T04:47:18;15.55;;;10.45;;
66523;SDS011;53350;52.210;5.160;2023-03-01T04:49:44;15.70;;;9.93;;
66523;SDS011;53350;52.210;5.160;2023-03-01T04:52:11;15.95;;;10.27;;
66523;SDS011;53350;52.210;5.160;2023-03-01T04:54:37;15.68;;;9.30;;
66523;SDS011;53350;52.210;5.160;2023-03-01T04:57:05;14.68;;;9.57;;
66523;SDS011;53350;52.210;5.160;2023-03-01T04:59:31;15.57;;;9.93;;
66523;SDS011;53350;52.210;5.160;2023-03-01T05:01:58;13.93;;;9.05;;
66523;SDS011;53350;52.210;5.160;2023-03-01T05:04:25;15.55;;;8.93;;
66523;SDS011;53350;52.210;5.160;2023-03-01T05:06:52;16.35;;;9.27;;
66523;SDS011;53350;52.210;5.160;2023-03-01T05:09:18;13.48;;;7.97;;
66523;SDS011;53350;52.210;5.160;2023-03-01T05:11:45;16.02;;;8.85;;
66523;SDS011;53350;52.210;5.160;2023-03-01T05:14:13;14.70;;;8.65;;
66523;SDS011;53350;52.210;5.160;2023-03-01T05:16:39;16.48;;;9.77;;
66523;SDS011;53350;52.210;5.160;2023-03-01T05:19:06;19.02;;;10.55;;
66523;SDS011;53350;52.210;5.160;2023-03-01T05:21:36;15.40;;;9.50;;
66523;SDS011;53350;52.210;5.160;2023-03-01T05:24:23;14.50;;;9.43;;
66523;SDS011;53350;52.210;5.160;2023-03-01T05:26:49;18.45;;;10.02;;
66523;SDS011;53350;52.210;5.160;2023-03-01T05:29:18;14.70;;;8.95;;
66523;SDS011;53350;52.210;5.160;2023-03-01T05:31:49;17.23;;;9.60;;
66523;SDS011;53350;52.210;5.160;2023-03-01T05:34:17;16.38;;;9.80;;
66523;SDS011;53350;52.210;5.160;2023-03-01T05:36:44;14.48;;;9.35;;
66523;SDS011;53350;52.210;5.160;2023-03-01T05:39:10;19.35;;;10.18;;
66523;SDS011;53350;52.210;5.160;2023-03-01T05:41:37;18.58;;;10.38;;
66523;SDS011;53350;52.210;5.160;2023-03-01T05:44:03;16.88;;;9.88;;
66523;SDS011;53350;52.210;5.160;2023-03-01T05:46:33;19.70;;;10.60;;
66523;SDS011;53350;52.210;5.160;2023-03-01T05:49:00;18.07;;;11.93;;
66523;SDS011;53350;52.210;5.160;2023-03-01T05:51:27;17.83;;;10.98;;
66523;SDS011;53350;52.210;5.160;2023-03-01T05:53:54;17.90;;;11.18;;
66523;SDS011;53350;52.210;5.160;2023-03-01T05:56:20;17.58;;;11.75;;
66523;SDS011;53350;52.210;5.160;2023-03-01T05:58:47;16.00;;;10.23;;
66523;SDS011;53350;52.210;5.160;2023-03-01T06:01:14;16.70;;;10.52;;
66523;SDS011;53350;52.210;5.160;2023-03-01T06:03:42;18.83;;;11.43;;
66523;SDS011;53350;52.210;5.160;2023-03-01T06:06:08;21.67;;;11.90;;
66523;SDS011;53350;52.210;5.160;2023-03-01T06:08:34;23.23;;;12.32;;
66523;SDS011;53350;52.210;5.160;2023-03-01T06:11:01;16.55;;;10.90;;
66523;SDS011;53350;52.210;5.160;2023-03-01T06:13:27;18.08;;;11.50;;
66523;SDS011;53350;52.210;5.160;2023-03-01T06:15:54;19.67;;;11.75;;
66523;SDS011;53350;52.210;5.160;2023-03-01T06:18:21;17.88;;;11.45;;
66523;SDS011;53350;52.210;5.160;2023-03-01T06:20:53;17.15;;;11.20;;
66523;SDS011;53350;52.210;5.160;2023-03-01T06:23:20;18.60;;;11.52;;
66523;SDS011;53350;52.210;5.160;2023-03-01T06:25:46;20.90;;;12.60;;
66523;SDS011;53350;52.210;5.160;2023-03-01T06:28:13;21.38;;;12.40;;
66523;SDS011;53350;52.210;5.160;2023-03-01T06:30:39;24.38;;;12.20;;
66523;SDS011;53350;52.210;5.160;2023-03-01T06:33:05;18.02;;;11.43;;
66523;SDS011;53350;52.210;5.160;2023-03-01T06:35:32;20.88;;;12.63;;
66523;SDS011;53350;52.210;5.160;2023-03-01T06:38:01;21.80;;;12.00;;
66523;SDS011;53350;52.210;5.160;2023-03-01T06:40:29;19.60;;;11.73;;
66523;SDS011;53350;52.210;5.160;2023-03-01T06:42:57;20.23;;;13.70;;
66523;SDS011;53350;52.210;5.160;2023-03-01T06:45:24;22.35;;;13.60;;
66523;SDS011;53350;52.210;5.160;2023-03-01T06:47:50;23.92;;;13.70;;
66523;SDS011;53350;52.210;5.160;2023-03-01T06:50:17;20.88;;;12.75;;
66523;SDS011;53350;52.210;5.160;2023-03-01T06:52:44;23.52;;;13.95;;
66523;SDS011;53350;52.210;5.160;2023-03-01T06:55:12;30.23;;;13.75;;
66523;SDS011;53350;52.210;5.160;2023-03-01T06:57:39;21.35;;;13.30;;
66523;SDS011;53350;52.210;5.160;2023-03-01T07:00:06;22.13;;;13.52;;
66523;SDS011;53350;52.210;5.160;2023-03-01T07:02:33;20.42;;;12.85;;
66523;SDS011;53350;52.210;5.160;2023-03-01T07:05:00;22.55;;;14.13;;
66523;SDS011;53350;52.210;5.160;2023-03-01T07:07:26;23.13;;;14.68;;
66523;SDS011;53350;52.210;5.160;2023-03-01T07:09:52;26.17;;;15.45;;
66523;SDS011;53350;52.210;5.160;2023-03-01T07:12:20;23.00;;;15.32;;
66523;SDS011;53350;52.210;5.160;2023-03-01T07:14:47;26.42;;;15.80;;
66523;SDS011;53350;52.210;5.160;2023-03-01T07:17:13;27.20;;;14.55;;
66523;SDS011;53350;52.210;5.160;2023-03-01T07:19:39;25.25;;;14.65;;
66523;SDS011;53350;52.210;5.160;2023-03-01T07:22:06;25.50;;;14.57;;
66523;SDS011;53350;52.210;5.160;2023-03-01T07:24:34;22.90;;;14.43;;
66523;SDS011;53350;52.210;5.160;2023-03-01T07:27:01;30.67;;;16.20;;
66523;SDS011;53350;52.210;5.160;2023-03-01T07:29:28;24.33;;;15.77;;
66523;SDS011;53350;52.210;5.160;2023-03-01T07:31:55;25.88;;;15.50;;
66523;SDS011;53350;52.210;5.160;2023-03-01T07:34:21;25.45;;;14.30;;
66523;SDS011;53350;52.210;5.160;2023-03-01T07:36:48;22.98;;;15.20;;
66523;SDS011;53350;52.210;5.160;2023-03-01T07:39:14;21.65;;;14.70;;
66523;SDS011;53350;52.210;5.160;2023-03-01T07:41:41;23.95;;;14.88;;
66523;SDS011;53350;52.210;5.160;2023-03-01T07:44:07;23.45;;;14.43;;
66523;SDS011;53350;52.210;5.160;2023-03-01T07:46:35;23.63;;;15.32;;
66523;SDS011;53350;52.210;5.160;2023-03-01T07:49:01;25.40;;;14.35;;
66523;SDS011;53350;52.210;5.160;2023-03-01T07:51:29;26.48;;;13.98;;
66523;SDS011;53350;52.210;5.160;2023-03-01T07:53:56;22.45;;;14.15;;
66523;SDS011;53350;52.210;5.160;2023-03-01T07:56:22;22.30;;;13.27;;
66523;SDS011;53350;52.210;5.160;2023-03-01T07:58:48;22.83;;;13.52;;
66523;SDS011;53350;52.210;5.160;2023-03-01T08:01:16;19.33;;;11.35;;
66523;SDS011;53350;52.210;5.160;2023-03-01T08:03:45;17.60;;;11.95;;
66523;SDS011;53350;52.210;5.160;2023-03-01T08:06:12;17.60;;;11.05;;
66523;SDS011;53350;52.210;5.160;2023-03-01T08:08:40;19.52;;;12.05;;
66523;SDS011;53350;52.210;5.160;2023-03-01T08:11:07;16.95;;;11.90;;
66523;SDS011;53350;52.210;5.160;2023-03-01T08:13:36;18.25;;;11.52;;
66523;SDS011;53350;52.210;5.160;2023-03-01T08:16:02;18.70;;;11.65;;
66523;SDS011;53350;52.210;5.160;2023-03-01T08:18:30;19.23;;;12.05;;
66523;SDS011;53350;52.210;5.160;2023-03-01T08:21:02;19.80;;;11.88;;
66523;SDS011;53350;52.210;5.160;2023-03-01T08:23:29;18.60;;;12.02;;
66523;SDS011;53350;52.210;5.160;2023-03-01T08:26:02;19.52;;;10.73;;
66523;SDS011;53350;52.210;5.160;2023-03-01T08:28:30;20.35;;;10.57;;
66523;SDS011;53350;52.210;5.160;2023-03-01T08:30:56;17.52;;;10.50;;
66523;SDS011;53350;52.210;5.160;2023-03-01T08:33:22;18.42;;;9.43;;
66523;SDS011;53350;52.210;5.160;2023-03-01T08:35:49;14.32;;;8.98;;
66523;SDS011;53350;52.210;5.160;2023-03-01T08:38:16;16.55;;;8.73;;
66523;SDS011;53350;52.210;5.160;2023-03-01T08:40:43;14.97;;;9.60;;
66523;SDS011;53350;52.210;5.160;2023-03-01T08:43:09;14.20;;;9.05;;
66523;SDS011;53350;52.210;5.160;2023-03-01T08:45:36;10.95;;;6.13;;
66523;SDS011;53350;52.210;5.160;2023-03-01T08:48:02;14.77;;;8.98;;
66523;SDS011;53350;52.210;5.160;2023-03-01T08:50:29;13.77;;;7.97;;
66523;SDS011;53350;52.210;5.160;2023-03-01T08:52:55;13.07;;;6.85;;
66523;SDS011;53350;52.210;5.160;2023-03-01T08:55:23;16.13;;;7.43;;
66523;SDS011;53350;52.210;5.160;2023-03-01T08:57:49;13.10;;;8.13;;
66523;SDS011;53350;52.210;5.160;2023-03-01T09:00:16;14.13;;;7.65;;
66523;SDS011;53350;52.210;5.160;2023-03-01T09:02:43;15.15;;;8.80;;
66523;SDS011;53350;52.210;5.160;2023-03-01T09:05:09;14.65;;;7.68;;
66523;SDS011;53350;52.210;5.160;2023-03-01T09:07:36;14.93;;;7.13;;
66523;SDS011;53350;52.210;5.160;2023-03-01T09:10:02;10.70;;;6.97;;
66523;SDS011;53350;52.210;5.160;2023-03-01T09:12:31;11.55;;;7.70;;
66523;SDS011;53350;52.210;5.160;2023-03-01T09:14:57;13.53;;;8.10;;
66523;SDS011;53350;52.210;5.160;2023-03-01T09:17:24;12.38;;;6.28;;
66523;SDS011;53350;52.210;5.160;2023-03-01T09:19:50;11.35;;;7.38;;
66523;SDS011;53350;52.210;5.160;2023-03-01T09:22:17;12.43;;;7.25;;
66523;SDS011;53350;52.210;5.160;2023-03-01T09:24:43;10.13;;;6.20;;
66523;SDS011;53350;52.210;5.160;2023-03-01T09:27:09;11.70;;;5.85;;
66523;SDS011;53350;52.210;5.160;2023-03-01T09:29:39;9.10;;;5.20;;
66523;SDS011;53350;52.210;5.160;2023-03-01T09:32:05;7.40;;;3.88;;
66523;SDS011;53350;52.210;5.160;2023-03-01T09:34:33;10.85;;;6.03;;
66523;SDS011;53350;52.210;5.160;2023-03-01T09:37:19;10.43;;;6.05;;
66523;SDS011;53350;52.210;5.160;2023-03-01T09:39:46;9.65;;;5.78;;
66523;SDS011;53350;52.210;5.160;2023-03-01T09:42:12;12.70;;;6.57;;
66523;SDS011;53350;52.210;5.160;2023-03-01T09:47:12;12.77;;;7.15;;
66523;SDS011;53350;52.210;5.160;2023-03-01T09:49:43;12.93;;;6.68;;
66523;SDS011;53350;52.210;5.160;2023-03-01T09:52:19;14.40;;;5.47;;
66523;SDS011;53350;52.210;5.160;2023-03-01T09:54:52;11.48;;;6.57;;
66523;SDS011;53350;52.210;5.160;2023-03-01T09:57:24;11.02;;;4.78;;
66523;SDS011;53350;52.210;5.160;2023-03-01T10:00:02;10.93;;;4.90;;
66523;SDS011;53350;52.210;5.160;2023-03-01T10:02:41;12.63;;;5.75;;
66523;SDS011;53350;52.210;5.160;2023-03-01T10:05:14;17.77;;;6.70;;
66523;SDS011;53350;52.210;5.160;2023-03-01T10:07:49;12.47;;;6.37;;
66523;SDS011;53350;52.210;5.160;2023-03-01T10:10:28;12.00;;;6.18;;
66523;SDS011;53350;52.210;5.160;2023-03-01T10:12:57;10.60;;;5.85;;
66523;SDS011;53350;52.210;5.160;2023-03-01T10:15:33;9.30;;;4.28;;
66523;SDS011;53350;52.210;5.160;2023-03-01T10:18:04;10.10;;;5.13;;
66523;SDS011;53350;52.210;5.160;2023-03-01T10:20:38;16.52;;;5.85;;
66523;SDS011;53350;52.210;5.160;2023-03-01T10:23:12;6.97;;;2.95;;
66523;SDS011;53350;52.210;5.160;2023-03-01T10:25:42;7.93;;;4.13;;
66523;SDS011;53350;52.210;5.160;2023-03-01T10:28:16;8.85;;;4.35;;
66523;SDS011;53350;52.210;5.160;2023-03-01T10:30:47;8.60;;;4.18;;
66523;SDS011;53350;52.210;5.160;2023-03-01T10:33:16;5.82;;;2.83;;
66523;SDS011;53350;52.210;5.160;2023-03-01T10:35:46;7.60;;;3.70;;
66523;SDS011;53350;52.210;5.160;2023-03-01T10:38:13;7.38;;;2.97;;
66523;SDS011;53350;52.210;5.160;2023-03-01T10:40:51;8.35;;;3.70;;
66523;SDS011;53350;52.210;5.160;2023-03-01T10:43:19;12.40;;;3.63;;
66523;SDS011;53350;52.210;5.160;2023-03-01T10:45:48;7.13;;;3.42;;
66523;SDS011;53350;52.210;5.160;2023-03-01T10:48:17;8.93;;;4.82;;
66523;SDS011;53350;52.210;5.160;2023-03-01T10:50:47;9.07;;;4.25;;
66523;SDS011;53350;52.210;5.160;2023-03-01T10:53:22;9.13;;;4.00;;
66523;SDS011;53350;52.210;5.160;2023-03-01T10:55:59;11.88;;;4.30;;
66523;SDS011;53350;52.210;5.160;2023-03-01T10:58:28;7.45;;;3.45;;
66523;SDS011;53350;52.210;5.160;2023-03-01T11:00:57;8.18;;;4.40;;
66523;SDS011;53350;52.210;5.160;2023-03-01T11:03:26;8.88;;;4.15;;
66523;SDS011;53350;52.210;5.160;2023-03-01T11:05:58;7.85;;;4.00;;
66523;SDS011;53350;52.210;5.160;2023-03-01T11:08:31;8.38;;;4.20;;
66523;SDS011;53350;52.210;5.160;2023-03-01T11:11:06;8.80;;;3.90;;
66523;SDS011;53350;52.210;5.160;2023-03-01T11:13:52;14.02;;;3.85;;
66523;SDS011;53350;52.210;5.160;2023-03-01T11:16:31;9.00;;;3.80;;
66523;SDS011;53350;52.210;5.160;2023-03-01T11:19:00;9.18;;;3.85;;
66523;SDS011;53350;52.210;5.160;2023-03-01T11:21:41;8.45;;;3.70;;
66523;SDS011;53350;52.210;5.160;2023-03-01T11:24:11;7.07;;;3.28;;
66523;SDS011;53350;52.210;5.160;2023-03-01T11:26:41;9.35;;;4.38;;
66523;SDS011;53350;52.210;5.160;2023-03-01T11:29:13;6.68;;;3.28;;
66523;SDS011;53350;52.210;5.160;2023-03-01T11:31:45;7.10;;;3.33;;
66523;SDS011;53350;52.210;5.160;2023-03-01T11:34:13;8.73;;;2.90;;
66523;SDS011;53350;52.210;5.160;2023-03-01T11:36:44;6.13;;;2.38;;
66523;SDS011;53350;52.210;5.160;2023-03-01T11:39:17;6.68;;;3.20;;
66523;SDS011;53350;52.210;5.160;2023-03-01T11:41:58;8.65;;;3.60;;
66523;SDS011;53350;52.210;5.160;2023-03-01T11:44:31;8.10;;;3.25;;
66523;SDS011;53350;52.210;5.160;2023-03-01T11:47:07;5.72;;;2.55;;
66523;SDS011;53350;52.210;5.160;2023-03-01T11:49:45;7.15;;;3.45;;
66523;SDS011;53350;52.210;5.160;2023-03-01T11:52:21;8.00;;;3.88;;
66523;SDS011;53350;52.210;5.160;2023-03-01T11:55:01;7.97;;;3.88;;
66523;SDS011;53350;52.210;5.160;2023-03-01T11:57:44;9.75;;;3.85;;
66523;SDS011;53350;52.210;5.160;2023-03-01T12:00:31;7.97;;;2.92;;
66523;SDS011;53350;52.210;5.160;2023-03-01T12:03:25;9.90;;;3.60;;
66523;SDS011;53350;52.210;5.160;2023-03-01T12:06:01;7.55;;;2.78;;
66523;SDS011;53350;52.210;5.160;2023-03-01T12:08:50;7.90;;;4.18;;
66523;SDS011;53350;52.210;5.160;2023-03-01T12:11:32;6.88;;;2.85;;
66523;SDS011;53350;52.210;5.160;2023-03-01T12:14:17;13.45;;;3.88;;
66523;SDS011;53350;52.210;5.160;2023-03-01T12:19:53;9.57;;;3.63;;
66523;SDS011;53350;52.210;5.160;2023-03-01T12:22:35;3.90;;;1.98;;
66523;SDS011;53350;52.210;5.160;2023-03-01T12:25:16;9.95;;;4.35;;
66523;SDS011;53350;52.210;5.160;2023-03-01T12:31:10;7.25;;;2.95;;
66523;SDS011;53350;52.210;5.160;2023-03-01T12:33:57;7.22;;;3.22;;
66523;SDS011;53350;52.210;5.160;2023-03-01T12:36:36;7.88;;;3.92;;
66523;SDS011;53350;52.210;5.160;2023-03-01T12:39:22;6.15;;;2.92;;
66523;SDS011;53350;52.210;5.160;2023-03-01T12:42:01;8.48;;;3.15;;
66523;SDS011;53350;52.210;5.160;2023-03-01T12:44:41;8.37;;;3.63;;
66523;SDS011;53350;52.210;5.160;2023-03-01T12:47:23;6.57;;;3.25;;
66523;SDS011;53350;52.210;5.160;2023-03-01T12:50:02;6.80;;;2.80;;
66523;SDS011;53350;52.210;5.160;2023-03-01T12:52:35;9.05;;;3.63;;
66523;SDS011;53350;52.210;5.160;2023-03-01T12:55:06;5.90;;;2.65;;
66523;SDS011;53350;52.210;5.160;2023-03-01T12:57:45;9.65;;;3.72;;
66523;SDS011;53350;52.210;5.160;2023-03-01T13:00:18;9.77;;;3.85;;
66523;SDS011;53350;52.210;5.160;2023-03-01T13:02:54;8.02;;;3.88;;
66523;SDS011;53350;52.210;5.160;2023-03-01T13:05:29;6.72;;;2.90;;
66523;SDS011;53350;52.210;5.160;2023-03-01T13:08:07;5.43;;;2.65;;
66523;SDS011;53350;52.210;5.160;2023-03-01T13:10:43;8.57;;;3.47;;
66523;SDS011;53350;52.210;5.160;2023-03-01T13:13:13;7.68;;;3.17;;
66523;SDS011;53350;52.210;5.160;2023-03-01T13:15:45;9.57;;;2.78;;
66523;SDS011;53350;52.210;5.160;2023-03-01T13:18:29;6.40;;;2.30;;
66523;SDS011;53350;52.210;5.160;2023-03-01T13:20:57;7.32;;;3.58;;
66523;SDS011;53350;52.210;5.160;2023-03-01T13:23:28;8.02;;;3.88;;
66523;SDS011;53350;52.210;5.160;2023-03-01T13:26:08;9.73;;;3.88;;
66523;SDS011;53350;52.210;5.160;2023-03-01T13:28:50;8.57;;;4.00;;
66523;SDS011;53350;52.210;5.160;2023-03-01T13:34:41;8.52;;;4.13;;
66523;SDS011;53350;52.210;5.160;2023-03-01T13:37:10;8.68;;;4.22;;
66523;SDS011;53350;52.210;5.160;2023-03-01T13:39:47;9.73;;;3.65;;
66523;SDS011;53350;52.210;5.160;2023-03-01T13:42:29;6.55;;;3.15;;
66523;SDS011;53350;52.210;5.160;2023-03-01T13:44:58;8.68;;;3.28;;
66523;SDS011;53350;52.210;5.160;2023-03-01T13:47:26;7.75;;;3.60;;
66523;SDS011;53350;52.210;5.160;2023-03-01T13:49:55;8.27;;;3.38;;
66523;SDS011;53350;52.210;5.160;2023-03-01T13:52:29;7.32;;;3.25;;
66523;SDS011;53350;52.210;5.160;2023-03-01T13:55:03;8.13;;;3.75;;
66523;SDS011;53350;52.210;5.160;2023-03-01T13:57:32;6.75;;;3.28;;
66523;SDS011;53350;52.210;5.160;2023-03-01T14:00:00;6.18;;;2.97;;
66523;SDS011;53350;52.210;5.160;2023-03-01T14:02:27;7.68;;;3.22;;
66523;SDS011;53350;52.210;5.160;2023-03-01T14:04:57;5.57;;;2.42;;
66523;SDS011;53350;52.210;5.160;2023-03-01T14:07:25;9.35;;;3.17;;
66523;SDS011;53350;52.210;5.160;2023-03-01T14:09:54;7.43;;;3.45;;
66523;SDS011;53350;52.210;5.160;2023-03-01T14:12:32;12.20;;;4.00;;
66523;SDS011;53350;52.210;5.160;2023-03-01T14:15:08;9.25;;;3.75;;
66523;SDS011;53350;52.210;5.160;2023-03-01T14:20:27;7.32;;;3.13;;
66523;SDS011;53350;52.210;5.160;2023-03-01T14:22:57;8.65;;;3.20;;
66523;SDS011;53350;52.210;5.160;2023-03-01T14:25:26;13.25;;;3.38;;
66523;SDS011;53350;52.210;5.160;2023-03-01T14:27:57;10.45;;;3.20;;
66523;SDS011;53350;52.210;5.160;2023-03-01T14:30:26;6.13;;;2.63;;
66523;SDS011;53350;52.210;5.160;2023-03-01T14:32:58;7.38;;;3.10;;
66523;SDS011;53350;52.210;5.160;2023-03-01T14:35:27;6.55;;;3.38;;
66523;SDS011;53350;52.210;5.160;2023-03-01T14:37:55;9.23;;;3.60;;
66523;SDS011;53350;52.210;5.160;2023-03-01T14:40:23;7.53;;;3.22;;
66523;SDS011;53350;52.210;5.160;2023-03-01T14:42:52;5.57;;;2.58;;
66523;SDS011;53350;52.210;5.160;2023-03-01T14:45:22;5.78;;;2.67;;
66523;SDS011;53350;52.210;5.160;2023-03-01T14:47:52;5.97;;;2.20;;
66523;SDS011;53350;52.210;5.160;2023-03-01T14:50:22;6.73;;;2.97;;
66523;SDS011;53350;52.210;5.160;2023-03-01T14:52:52;6.38;;;2.90;;
66523;SDS011;53350;52.210;5.160;2023-03-01T14:55:21;6.80;;;3.08;;
66523;SDS011;53350;52.210;5.160;2023-03-01T14:57:51;5.82;;;2.90;;
66523;SDS011;53350;52.210;5.160;2023-03-01T15:00:19;9.82;;;3.58;;
66523;SDS011;53350;52.210;5.160;2023-03-01T15:02:50;7.95;;;3.42;;
66523;SDS011;53350;52.210;5.160;2023-03-01T15:05:19;7.20;;;2.75;;
66523;SDS011;53350;52.210;5.160;2023-03-01T15:07:51;5.55;;;2.30;;
66523;SDS011;53350;52.210;5.160;2023-03-01T15:10:19;8.95;;;4.07;;
66523;SDS011;53350;52.210;5.160;2023-03-01T15:12:47;8.32;;;3.35;;